< < Back
Terminal Aerodrome Forecast


Current Version              Previous Versions:   1  2  3  4  5  6  7  8  9  

Terminal Aerodrome Forecast

740
FTUS42 KFFC 300527
TAFFTY
TAF
KFTY 300527Z 3006/3106 07004KT P6SM FEW100
     FM301400 08006KT P6SM FEW030
     FM301700 07010G17KT P6SM SCT045
     FM310000 08006KT P6SM SCT120=

Latest METAR

520
SAUS70 KWBC 301300 RRG
MTRFTY
METAR KFTY 301253Z 01004KT 10SM CLR 24/19 A3011 RMK AO2 SLP185
T02390189


USA.gov is the U.S. government's official web portal to all federal, state and local government web resources and services.